sensor_id;sensor_type;location;lat;lon;timestamp;P1;durP1;ratioP1;P2;durP2;ratioP2
9912;SDS011;41380;52.548;13.344;2022-09-09T00:01:14;12.80;;;10.60;;
9912;SDS011;41380;52.548;13.344;2022-09-09T00:03:52;12.63;;;10.13;;
9912;SDS011;41380;52.548;13.344;2022-09-09T00:06:26;11.00;;;9.60;;
9912;SDS011;41380;52.548;13.344;2022-09-09T00:08:59;12.95;;;10.90;;
9912;SDS011;41380;52.548;13.344;2022-09-09T00:11:32;13.27;;;10.00;;
9912;SDS011;41380;52.548;13.344;2022-09-09T00:14:08;15.43;;;11.40;;
9912;SDS011;41380;52.548;13.344;2022-09-09T00:16:43;13.52;;;11.10;;
9912;SDS011;41380;52.548;13.344;2022-09-09T00:19:18;13.95;;;11.27;;
9912;SDS011;41380;52.548;13.344;2022-09-09T00:21:50;13.93;;;12.18;;
9912;SDS011;41380;52.548;13.344;2022-09-09T00:24:28;17.77;;;11.80;;
9912;SDS011;41380;52.548;13.344;2022-09-09T00:27:06;15.52;;;11.20;;
9912;SDS011;41380;52.548;13.344;2022-09-09T00:29:39;15.45;;;11.45;;
9912;SDS011;41380;52.548;13.344;2022-09-09T00:32:13;13.90;;;11.13;;
9912;SDS011;41380;52.548;13.344;2022-09-09T00:34:46;19.33;;;11.77;;
9912;SDS011;41380;52.548;13.344;2022-09-09T00:37:15;18.13;;;12.63;;
9912;SDS011;41380;52.548;13.344;2022-09-09T00:39:44;18.15;;;12.30;;
9912;SDS011;41380;52.548;13.344;2022-09-09T00:42:14;19.42;;;12.32;;
9912;SDS011;41380;52.548;13.344;2022-09-09T00:44:51;15.90;;;12.32;;
9912;SDS011;41380;52.548;13.344;2022-09-09T00:50:15;16.42;;;11.32;;
9912;SDS011;41380;52.548;13.344;2022-09-09T00:53:00;16.23;;;12.07;;
9912;SDS011;41380;52.548;13.344;2022-09-09T00:55:38;18.90;;;13.05;;
9912;SDS011;41380;52.548;13.344;2022-09-09T00:58:11;18.52;;;13.13;;
9912;SDS011;41380;52.548;13.344;2022-09-09T01:00:40;18.80;;;13.25;;
9912;SDS011;41380;52.548;13.344;2022-09-09T01:03:18;17.13;;;12.85;;
9912;SDS011;41380;52.548;13.344;2022-09-09T01:05:52;15.82;;;12.00;;
9912;SDS011;41380;52.548;13.344;2022-09-09T01:08:32;20.98;;;13.23;;
9912;SDS011;41380;52.548;13.344;2022-09-09T01:11:07;18.73;;;12.40;;
9912;SDS011;41380;52.548;13.344;2022-09-09T01:13:42;17.58;;;12.25;;
9912;SDS011;41380;52.548;13.344;2022-09-09T01:16:11;17.02;;;12.95;;
9912;SDS011;41380;52.548;13.344;2022-09-09T01:18:40;20.42;;;13.55;;
9912;SDS011;41380;52.548;13.344;2022-09-09T01:21:15;19.73;;;13.20;;
9912;SDS011;41380;52.548;13.344;2022-09-09T01:23:57;18.95;;;13.75;;
9912;SDS011;41380;52.548;13.344;2022-09-09T01:26:40;18.30;;;13.50;;
9912;SDS011;41380;52.548;13.344;2022-09-09T01:29:09;23.10;;;14.80;;
9912;SDS011;41380;52.548;13.344;2022-09-09T01:31:38;22.80;;;15.27;;
9912;SDS011;41380;52.548;13.344;2022-09-09T01:34:11;16.52;;;13.18;;
9912;SDS011;41380;52.548;13.344;2022-09-09T01:36:40;22.58;;;15.30;;
9912;SDS011;41380;52.548;13.344;2022-09-09T01:39:09;21.00;;;14.50;;
9912;SDS011;41380;52.548;13.344;2022-09-09T01:41:37;22.20;;;14.45;;
9912;SDS011;41380;52.548;13.344;2022-09-09T01:44:06;20.88;;;14.70;;
9912;SDS011;41380;52.548;13.344;2022-09-09T01:46:34;24.17;;;15.57;;
9912;SDS011;41380;52.548;13.344;2022-09-09T01:49:02;21.92;;;15.20;;
9912;SDS011;41380;52.548;13.344;2022-09-09T01:51:32;19.33;;;13.57;;
9912;SDS011;41380;52.548;13.344;2022-09-09T01:53:59;22.17;;;14.40;;
9912;SDS011;41380;52.548;13.344;2022-09-09T01:56:32;19.95;;;14.20;;
9912;SDS011;41380;52.548;13.344;2022-09-09T01:59:10;24.30;;;15.52;;
9912;SDS011;41380;52.548;13.344;2022-09-09T02:01:47;24.30;;;15.45;;
9912;SDS011;41380;52.548;13.344;2022-09-09T02:04:36;23.95;;;15.50;;
9912;SDS011;41380;52.548;13.344;2022-09-09T02:07:06;24.48;;;14.82;;
9912;SDS011;41380;52.548;13.344;2022-09-09T02:09:43;23.40;;;15.30;;
9912;SDS011;41380;52.548;13.344;2022-09-09T02:12:13;23.83;;;15.32;;
9912;SDS011;41380;52.548;13.344;2022-09-09T02:14:46;22.83;;;15.23;;
9912;SDS011;41380;52.548;13.344;2022-09-09T02:17:17;23.75;;;15.52;;
9912;SDS011;41380;52.548;13.344;2022-09-09T02:19:49;26.05;;;14.95;;
9912;SDS011;41380;52.548;13.344;2022-09-09T02:22:21;23.83;;;15.38;;
9912;SDS011;41380;52.548;13.344;2022-09-09T02:24:53;24.35;;;15.52;;
9912;SDS011;41380;52.548;13.344;2022-09-09T02:27:24;20.25;;;13.95;;
9912;SDS011;41380;52.548;13.344;2022-09-09T02:29:53;23.05;;;14.57;;
9912;SDS011;41380;52.548;13.344;2022-09-09T02:32:23;22.80;;;14.20;;
9912;SDS011;41380;52.548;13.344;2022-09-09T02:34:56;25.40;;;15.02;;
9912;SDS011;41380;52.548;13.344;2022-09-09T02:37:27;26.70;;;16.17;;
9912;SDS011;41380;52.548;13.344;2022-09-09T02:39:58;21.27;;;14.50;;
9912;SDS011;41380;52.548;13.344;2022-09-09T02:42:25;23.33;;;15.10;;
9912;SDS011;41380;52.548;13.344;2022-09-09T02:44:53;27.40;;;16.88;;
9912;SDS011;41380;52.548;13.344;2022-09-09T02:47:24;23.40;;;16.75;;
9912;SDS011;41380;52.548;13.344;2022-09-09T02:49:58;21.13;;;15.50;;
9912;SDS011;41380;52.548;13.344;2022-09-09T02:52:42;21.88;;;15.10;;
9912;SDS011;41380;52.548;13.344;2022-09-09T02:55:17;22.48;;;16.13;;
9912;SDS011;41380;52.548;13.344;2022-09-09T02:57:49;22.80;;;15.38;;
9912;SDS011;41380;52.548;13.344;2022-09-09T03:00:23;20.70;;;14.00;;
9912;SDS011;41380;52.548;13.344;2022-09-09T03:02:51;20.77;;;14.13;;
9912;SDS011;41380;52.548;13.344;2022-09-09T03:05:19;20.15;;;13.90;;
9912;SDS011;41380;52.548;13.344;2022-09-09T03:07:46;22.80;;;13.45;;
9912;SDS011;41380;52.548;13.344;2022-09-09T03:10:14;19.80;;;12.60;;
9912;SDS011;41380;52.548;13.344;2022-09-09T03:12:41;19.00;;;12.98;;
9912;SDS011;41380;52.548;13.344;2022-09-09T03:15:08;17.20;;;11.82;;
9912;SDS011;41380;52.548;13.344;2022-09-09T03:17:37;16.15;;;11.60;;
9912;SDS011;41380;52.548;13.344;2022-09-09T03:20:06;19.35;;;12.00;;
9912;SDS011;41380;52.548;13.344;2022-09-09T03:22:34;17.88;;;12.35;;
9912;SDS011;41380;52.548;13.344;2022-09-09T03:25:01;19.08;;;12.13;;
9912;SDS011;41380;52.548;13.344;2022-09-09T03:27:28;19.02;;;13.05;;
9912;SDS011;41380;52.548;13.344;2022-09-09T03:29:56;17.92;;;12.07;;
9912;SDS011;41380;52.548;13.344;2022-09-09T03:32:23;24.33;;;13.77;;
9912;SDS011;41380;52.548;13.344;2022-09-09T03:34:53;19.50;;;13.15;;
9912;SDS011;41380;52.548;13.344;2022-09-09T03:37:20;19.42;;;12.40;;
9912;SDS011;41380;52.548;13.344;2022-09-09T03:39:47;15.80;;;11.43;;
9912;SDS011;41380;52.548;13.344;2022-09-09T03:42:14;15.88;;;11.43;;
9912;SDS011;41380;52.548;13.344;2022-09-09T03:44:44;17.27;;;12.27;;
9912;SDS011;41380;52.548;13.344;2022-09-09T03:47:15;17.30;;;11.70;;
9912;SDS011;41380;52.548;13.344;2022-09-09T03:49:42;16.77;;;11.80;;
9912;SDS011;41380;52.548;13.344;2022-09-09T03:52:11;14.23;;;10.68;;
9912;SDS011;41380;52.548;13.344;2022-09-09T03:54:38;16.05;;;10.90;;
9912;SDS011;41380;52.548;13.344;2022-09-09T03:57:07;12.52;;;10.40;;
9912;SDS011;41380;52.548;13.344;2022-09-09T03:59:34;14.93;;;10.85;;
9912;SDS011;41380;52.548;13.344;2022-09-09T04:02:01;14.40;;;10.88;;
9912;SDS011;41380;52.548;13.344;2022-09-09T04:04:28;15.25;;;11.10;;
9912;SDS011;41380;52.548;13.344;2022-09-09T04:06:55;14.07;;;9.98;;
9912;SDS011;41380;52.548;13.344;2022-09-09T04:09:24;17.80;;;11.13;;
9912;SDS011;41380;52.548;13.344;2022-09-09T04:11:50;12.85;;;10.27;;
9912;SDS011;41380;52.548;13.344;2022-09-09T04:14:18;13.10;;;9.63;;
9912;SDS011;41380;52.548;13.344;2022-09-09T04:16:45;12.57;;;9.68;;
9912;SDS011;41380;52.548;13.344;2022-09-09T04:19:12;16.95;;;10.15;;
9912;SDS011;41380;52.548;13.344;2022-09-09T04:21:39;11.57;;;9.77;;
9912;SDS011;41380;52.548;13.344;2022-09-09T04:24:07;13.63;;;10.98;;
9912;SDS011;41380;52.548;13.344;2022-09-09T04:26:36;11.50;;;9.65;;
9912;SDS011;41380;52.548;13.344;2022-09-09T04:29:03;13.68;;;9.30;;
9912;SDS011;41380;52.548;13.344;2022-09-09T04:31:32;11.90;;;9.50;;
9912;SDS011;41380;52.548;13.344;2022-09-09T04:33:59;15.52;;;10.75;;
9912;SDS011;41380;52.548;13.344;2022-09-09T04:36:30;12.60;;;10.18;;
9912;SDS011;41380;52.548;13.344;2022-09-09T04:38:58;12.45;;;9.65;;
9912;SDS011;41380;52.548;13.344;2022-09-09T04:41:25;14.75;;;10.15;;
9912;SDS011;41380;52.548;13.344;2022-09-09T04:43:53;12.65;;;8.82;;
9912;SDS011;41380;52.548;13.344;2022-09-09T04:46:21;12.95;;;9.63;;
9912;SDS011;41380;52.548;13.344;2022-09-09T04:48:49;10.88;;;8.75;;
9912;SDS011;41380;52.548;13.344;2022-09-09T04:51:17;12.02;;;9.63;;
9912;SDS011;41380;52.548;13.344;2022-09-09T04:53:44;13.15;;;9.48;;
9912;SDS011;41380;52.548;13.344;2022-09-09T04:56:12;11.25;;;9.38;;
9912;SDS011;41380;52.548;13.344;2022-09-09T04:58:40;10.60;;;9.48;;
9912;SDS011;41380;52.548;13.344;2022-09-09T05:01:09;12.57;;;9.50;;
9912;SDS011;41380;52.548;13.344;2022-09-09T05:03:37;13.38;;;9.73;;
9912;SDS011;41380;52.548;13.344;2022-09-09T05:06:05;10.60;;;9.50;;
9912;SDS011;41380;52.548;13.344;2022-09-09T05:08:37;9.43;;;8.30;;
9912;SDS011;41380;52.548;13.344;2022-09-09T05:11:12;12.18;;;8.68;;
9912;SDS011;41380;52.548;13.344;2022-09-09T05:13:40;13.85;;;9.02;;
9912;SDS011;41380;52.548;13.344;2022-09-09T05:16:08;11.32;;;8.13;;
9912;SDS011;41380;52.548;13.344;2022-09-09T05:18:36;10.18;;;9.00;;
9912;SDS011;41380;52.548;13.344;2022-09-09T05:21:03;12.80;;;10.52;;
9912;SDS011;41380;52.548;13.344;2022-09-09T05:23:31;11.48;;;8.95;;
9912;SDS011;41380;52.548;13.344;2022-09-09T05:25:59;12.05;;;9.18;;
9912;SDS011;41380;52.548;13.344;2022-09-09T05:28:26;11.77;;;8.63;;
9912;SDS011;41380;52.548;13.344;2022-09-09T05:30:56;10.88;;;8.98;;
9912;SDS011;41380;52.548;13.344;2022-09-09T05:33:25;13.23;;;8.98;;
9912;SDS011;41380;52.548;13.344;2022-09-09T05:35:55;10.48;;;8.23;;
9912;SDS011;41380;52.548;13.344;2022-09-09T05:38:23;9.98;;;8.60;;
9912;SDS011;41380;52.548;13.344;2022-09-09T05:40:51;11.18;;;9.65;;
9912;SDS011;41380;52.548;13.344;2022-09-09T05:43:18;11.10;;;10.00;;
9912;SDS011;41380;52.548;13.344;2022-09-09T05:45:46;13.63;;;9.77;;
9912;SDS011;41380;52.548;13.344;2022-09-09T05:48:13;11.57;;;9.82;;
9912;SDS011;41380;52.548;13.344;2022-09-09T05:50:42;13.02;;;11.65;;
9912;SDS011;41380;52.548;13.344;2022-09-09T05:53:10;10.13;;;8.27;;
9912;SDS011;41380;52.548;13.344;2022-09-09T05:55:37;10.70;;;9.40;;
9912;SDS011;41380;52.548;13.344;2022-09-09T05:58:04;9.77;;;8.73;;
9912;SDS011;41380;52.548;13.344;2022-09-09T06:00:30;9.10;;;7.18;;
9912;SDS011;41380;52.548;13.344;2022-09-09T06:02:58;9.07;;;7.07;;
9912;SDS011;41380;52.548;13.344;2022-09-09T06:05:25;7.10;;;6.45;;
9912;SDS011;41380;52.548;13.344;2022-09-09T06:07:54;7.80;;;7.00;;
9912;SDS011;41380;52.548;13.344;2022-09-09T06:10:21;9.07;;;6.97;;
9912;SDS011;41380;52.548;13.344;2022-09-09T06:12:48;7.65;;;6.85;;
9912;SDS011;41380;52.548;13.344;2022-09-09T06:15:18;8.18;;;6.70;;
9912;SDS011;41380;52.548;13.344;2022-09-09T06:17:45;8.73;;;7.30;;
9912;SDS011;41380;52.548;13.344;2022-09-09T06:20:13;10.27;;;7.65;;
9912;SDS011;41380;52.548;13.344;2022-09-09T06:22:40;11.18;;;7.50;;
9912;SDS011;41380;52.548;13.344;2022-09-09T06:25:09;9.25;;;6.10;;
9912;SDS011;41380;52.548;13.344;2022-09-09T06:27:35;9.65;;;6.32;;
9912;SDS011;41380;52.548;13.344;2022-09-09T06:30:03;7.15;;;5.22;;
9912;SDS011;41380;52.548;13.344;2022-09-09T06:32:30;4.72;;;4.30;;
9912;SDS011;41380;52.548;13.344;2022-09-09T06:35:01;5.13;;;4.60;;
9912;SDS011;41380;52.548;13.344;2022-09-09T06:37:28;4.85;;;4.35;;
9912;SDS011;41380;52.548;13.344;2022-09-09T06:39:56;4.57;;;3.90;;
9912;SDS011;41380;52.548;13.344;2022-09-09T06:42:24;7.55;;;5.25;;
9912;SDS011;41380;52.548;13.344;2022-09-09T06:44:51;7.47;;;4.10;;
9912;SDS011;41380;52.548;13.344;2022-09-09T06:47:18;5.32;;;3.50;;
9912;SDS011;41380;52.548;13.344;2022-09-09T06:49:45;4.47;;;3.60;;
9912;SDS011;41380;52.548;13.344;2022-09-09T06:52:12;3.97;;;3.58;;
9912;SDS011;41380;52.548;13.344;2022-09-09T06:54:39;5.72;;;3.80;;
9912;SDS011;41380;52.548;13.344;2022-09-09T06:57:06;4.60;;;4.10;;
9912;SDS011;41380;52.548;13.344;2022-09-09T06:59:34;4.88;;;3.97;;
9912;SDS011;41380;52.548;13.344;2022-09-09T07:02:01;9.10;;;3.88;;
9912;SDS011;41380;52.548;13.344;2022-09-09T07:04:28;7.03;;;4.50;;
9912;SDS011;41380;52.548;13.344;2022-09-09T07:06:56;9.07;;;4.05;;
9912;SDS011;41380;52.548;13.344;2022-09-09T07:09:23;6.00;;;3.50;;
9912;SDS011;41380;52.548;13.344;2022-09-09T07:11:52;8.10;;;3.80;;
9912;SDS011;41380;52.548;13.344;2022-09-09T07:14:19;4.93;;;3.60;;
9912;SDS011;41380;52.548;13.344;2022-09-09T07:16:48;6.15;;;3.92;;
9912;SDS011;41380;52.548;13.344;2022-09-09T07:19:15;6.15;;;3.58;;
9912;SDS011;41380;52.548;13.344;2022-09-09T07:21:42;6.18;;;3.42;;
9912;SDS011;41380;52.548;13.344;2022-09-09T07:24:10;4.05;;;3.40;;
9912;SDS011;41380;52.548;13.344;2022-09-09T07:26:37;6.15;;;3.63;;
9912;SDS011;41380;52.548;13.344;2022-09-09T07:29:05;3.65;;;3.30;;
9912;SDS011;41380;52.548;13.344;2022-09-09T07:31:32;5.50;;;3.53;;
9912;SDS011;41380;52.548;13.344;2022-09-09T07:34:03;4.25;;;3.00;;
9912;SDS011;41380;52.548;13.344;2022-09-09T07:36:32;5.47;;;3.53;;
9912;SDS011;41380;52.548;13.344;2022-09-09T07:39:01;7.03;;;3.40;;
9912;SDS011;41380;52.548;13.344;2022-09-09T07:41:31;4.13;;;2.97;;
9912;SDS011;41380;52.548;13.344;2022-09-09T07:44:03;5.15;;;2.88;;
9912;SDS011;41380;52.548;13.344;2022-09-09T07:46:33;4.40;;;2.90;;
9912;SDS011;41380;52.548;13.344;2022-09-09T07:49:00;3.65;;;2.83;;
9912;SDS011;41380;52.548;13.344;2022-09-09T07:51:30;4.28;;;2.50;;
9912;SDS011;41380;52.548;13.344;2022-09-09T07:53:59;6.22;;;2.40;;
9912;SDS011;41380;52.548;13.344;2022-09-09T07:56:28;4.60;;;2.60;;
9912;SDS011;41380;52.548;13.344;2022-09-09T07:58:56;5.00;;;2.67;;
9912;SDS011;41380;52.548;13.344;2022-09-09T08:01:25;5.40;;;2.80;;
9912;SDS011;41380;52.548;13.344;2022-09-09T08:03:54;3.58;;;2.70;;
9912;SDS011;41380;52.548;13.344;2022-09-09T08:06:25;3.42;;;2.65;;
9912;SDS011;41380;52.548;13.344;2022-09-09T08:08:54;4.95;;;2.58;;
9912;SDS011;41380;52.548;13.344;2022-09-09T08:11:22;3.33;;;2.55;;
9912;SDS011;41380;52.548;13.344;2022-09-09T08:13:51;3.88;;;2.50;;
9912;SDS011;41380;52.548;13.344;2022-09-09T08:16:19;3.35;;;2.42;;
9912;SDS011;41380;52.548;13.344;2022-09-09T08:18:48;4.40;;;2.50;;
9912;SDS011;41380;52.548;13.344;2022-09-09T08:21:16;4.97;;;2.50;;
9912;SDS011;41380;52.548;13.344;2022-09-09T08:23:45;5.72;;;2.20;;
9912;SDS011;41380;52.548;13.344;2022-09-09T08:26:13;4.80;;;2.63;;
9912;SDS011;41380;52.548;13.344;2022-09-09T08:28:42;4.32;;;2.53;;
9912;SDS011;41380;52.548;13.344;2022-09-09T08:31:11;3.92;;;2.15;;
9912;SDS011;41380;52.548;13.344;2022-09-09T08:33:39;3.15;;;2.00;;
9912;SDS011;41380;52.548;13.344;2022-09-09T08:36:08;3.67;;;2.30;;
9912;SDS011;41380;52.548;13.344;2022-09-09T08:38:37;3.80;;;2.20;;
9912;SDS011;41380;52.548;13.344;2022-09-09T08:41:10;2.70;;;2.20;;
9912;SDS011;41380;52.548;13.344;2022-09-09T08:44:02;3.30;;;2.08;;
9912;SDS011;41380;52.548;13.344;2022-09-09T08:46:35;5.75;;;2.20;;
9912;SDS011;41380;52.548;13.344;2022-09-09T08:49:13;4.15;;;2.35;;
9912;SDS011;41380;52.548;13.344;2022-09-09T08:51:50;4.35;;;2.33;;
9912;SDS011;41380;52.548;13.344;2022-09-09T08:54:21;3.70;;;2.47;;
9912;SDS011;41380;52.548;13.344;2022-09-09T08:56:49;4.72;;;2.83;;
9912;SDS011;41380;52.548;13.344;2022-09-09T08:59:17;3.47;;;2.22;;
9912;SDS011;41380;52.548;13.344;2022-09-09T09:01:56;4.13;;;2.35;;
9912;SDS011;41380;52.548;13.344;2022-09-09T09:04:33;4.18;;;2.08;;
9912;SDS011;41380;52.548;13.344;2022-09-09T09:07:11;5.43;;;2.08;;
9912;SDS011;41380;52.548;13.344;2022-09-09T09:09:50;4.25;;;2.10;;
9912;SDS011;41380;52.548;13.344;2022-09-09T09:12:27;3.42;;;2.10;;
9912;SDS011;41380;52.548;13.344;2022-09-09T09:14:58;4.88;;;2.60;;
9912;SDS011;41380;52.548;13.344;2022-09-09T09:17:27;3.72;;;2.63;;
9912;SDS011;41380;52.548;13.344;2022-09-09T09:19:58;3.88;;;2.38;;
9912;SDS011;41380;52.548;13.344;2022-09-09T09:22:26;4.97;;;2.40;;
9912;SDS011;41380;52.548;13.344;2022-09-09T09:25:02;4.32;;;2.50;;
9912;SDS011;41380;52.548;13.344;2022-09-09T09:27:40;6.45;;;2.78;;
9912;SDS011;41380;52.548;13.344;2022-09-09T09:30:13;3.85;;;2.05;;
9912;SDS011;41380;52.548;13.344;2022-09-09T09:32:45;3.28;;;1.98;;
9912;SDS011;41380;52.548;13.344;2022-09-09T09:35:18;3.20;;;2.25;;
9912;SDS011;41380;52.548;13.344;2022-09-09T09:37:45;3.78;;;2.25;;
9912;SDS011;41380;52.548;13.344;2022-09-09T09:40:13;8.13;;;2.28;;
9912;SDS011;41380;52.548;13.344;2022-09-09T09:42:49;4.07;;;2.22;;
9912;SDS011;41380;52.548;13.344;2022-09-09T09:45:23;2.50;;;1.60;;
9912;SDS011;41380;52.548;13.344;2022-09-09T09:47:59;5.63;;;2.53;;
9912;SDS011;41380;52.548;13.344;2022-09-09T09:50:28;3.90;;;2.30;;
9912;SDS011;41380;52.548;13.344;2022-09-09T09:52:56;7.28;;;2.50;;
9912;SDS011;41380;52.548;13.344;2022-09-09T09:55:26;5.28;;;2.40;;
9912;SDS011;41380;52.548;13.344;2022-09-09T09:58:01;3.05;;;2.33;;
9912;SDS011;41380;52.548;13.344;2022-09-09T10:00:30;3.80;;;2.30;;
9912;SDS011;41380;52.548;13.344;2022-09-09T10:02:57;3.05;;;2.22;;
9912;SDS011;41380;52.548;13.344;2022-09-09T10:05:27;4.22;;;2.15;;
9912;SDS011;41380;52.548;13.344;2022-09-09T10:08:03;6.43;;;2.65;;
9912;SDS011;41380;52.548;13.344;2022-09-09T10:10:35;2.85;;;1.75;;
9912;SDS011;41380;52.548;13.344;2022-09-09T10:13:14;6.55;;;2.45;;
9912;SDS011;41380;52.548;13.344;2022-09-09T10:15:47;3.90;;;2.22;;
9912;SDS011;41380;52.548;13.344;2022-09-09T10:18:42;3.85;;;2.13;;
9912;SDS011;41380;52.548;13.344;2022-09-09T10:21:20;6.07;;;2.25;;
9912;SDS011;41380;52.548;13.344;2022-09-09T10:24:19;3.60;;;1.98;;
9912;SDS011;41380;52.548;13.344;2022-09-09T10:26:55;6.82;;;2.30;;
9912;SDS011;41380;52.548;13.344;2022-09-09T10:29:34;2.67;;;1.90;;
9912;SDS011;41380;52.548;13.344;2022-09-09T10:32:19;4.70;;;1.92;;
9912;SDS011;41380;52.548;13.344;2022-09-09T10:35:12;2.67;;;1.90;;
9912;SDS011;41380;52.548;13.344;2022-09-09T10:40:43;5.05;;;2.70;;
9912;SDS011;41380;52.548;13.344;2022-09-09T10:43:30;4.55;;;2.13;;
9912;SDS011;41380;52.548;13.344;2022-09-09T10:46:12;2.72;;;2.25;;
9912;SDS011;41380;52.548;13.344;2022-09-09T10:48:53;3.28;;;2.97;;
9912;SDS011;41380;52.548;13.344;2022-09-09T10:51:33;3.88;;;2.00;;
9912;SDS011;41380;52.548;13.344;2022-09-09T10:54:11;4.88;;;2.15;;
9912;SDS011;41380;52.548;13.344;2022-09-09T10:56:48;1.80;;;1.42;;
9912;SDS011;41380;52.548;13.344;2022-09-09T10:59:23;3.53;;;1.90;;
9912;SDS011;41380;52.548;13.344;2022-09-09T11:01:56;2.53;;;1.60;;
9912;SDS011;41380;52.548;13.344;2022-09-09T11:04:28;2.05;;;1.80;;
9912;SDS011;41380;52.548;13.344;2022-09-09T11:06:59;3.88;;;1.67;;
9912;SDS011;41380;52.548;13.344;2022-09-09T11:09:36;2.47;;;1.70;;
9912;SDS011;41380;52.548;13.344;2022-09-09T11:12:06;3.40;;;1.92;;
9912;SDS011;41380;52.548;13.344;2022-09-09T11:14:45;2.33;;;1.40;;
9912;SDS011;41380;52.548;13.344;2022-09-09T11:17:18;2.25;;;1.40;;
9912;SDS011;41380;52.548;13.344;2022-09-09T11:19:46;3.47;;;2.00;;
9912;SDS011;41380;52.548;13.344;2022-09-09T11:22:15;5.60;;;2.28;;
9912;SDS011;41380;52.548;13.344;2022-09-09T11:24:50;3.80;;;1.85;;
9912;SDS011;41380;52.548;13.344;2022-09-09T11:27:22;4.78;;;1.92;;
9912;SDS011;41380;52.548;13.344;2022-09-09T11:30:02;2.95;;;1.70;;
9912;SDS011;41380;52.548;13.344;2022-09-09T11:36:00;2.95;;;2.00;;
9912;SDS011;41380;52.548;13.344;2022-09-09T11:38:40;5.40;;;2.92;;
9912;SDS011;41380;52.548;13.344;2022-09-09T11:41:12;4.43;;;2.10;;
9912;SDS011;41380;52.548;13.344;2022-09-09T11:43:41;3.20;;;1.77;;
9912;SDS011;41380;52.548;13.344;2022-09-09T11:46:09;4.32;;;2.92;;
9912;SDS011;41380;52.548;13.344;2022-09-09T11:48:39;4.95;;;1.80;;
9912;SDS011;41380;52.548;13.344;2022-09-09T11:51:10;2.25;;;1.38;;
9912;SDS011;41380;52.548;13.344;2022-09-09T11:53:48;1.45;;;1.10;;
9912;SDS011;41380;52.548;13.344;2022-09-09T11:56:24;3.20;;;1.65;;
9912;SDS011;41380;52.548;13.344;2022-09-09T11:58:56;3.78;;;1.23;;
9912;SDS011;41380;52.548;13.344;2022-09-09T12:01:29;5.30;;;2.05;;
9912;SDS011;41380;52.548;13.344;2022-09-09T12:04:15;2.47;;;1.52;;
9912;SDS011;41380;52.548;13.344;2022-09-09T12:06:46;2.50;;;1.50;;
9912;SDS011;41380;52.548;13.344;2022-09-09T12:09:19;6.80;;;1.63;;
9912;SDS011;41380;52.548;13.344;2022-09-09T12:11:51;2.72;;;1.52;;
9912;SDS011;41380;52.548;13.344;2022-09-09T12:14:22;2.92;;;1.50;;
9912;SDS011;41380;52.548;13.344;2022-09-09T12:17:09;2.50;;;1.73;;
9912;SDS011;41380;52.548;13.344;2022-09-09T12:19:44;2.75;;;1.80;;
9912;SDS011;41380;52.548;13.344;2022-09-09T12:22:14;2.20;;;1.40;;
9912;SDS011;41380;52.548;13.344;2022-09-09T12:24:52;4.60;;;1.83;;
9912;SDS011;41380;52.548;13.344;2022-09-09T12:27:27;2.33;;;1.20;;
9912;SDS011;41380;52.548;13.344;2022-09-09T12:30:03;1.83;;;1.20;;
9912;SDS011;41380;52.548;13.344;2022-09-09T12:32:35;1.95;;;1.55;;
9912;SDS011;41380;52.548;13.344;2022-09-09T12:35:03;3.85;;;1.60;;
9912;SDS011;41380;52.548;13.344;2022-09-09T12:37:38;2.55;;;1.35;;
9912;SDS011;41380;52.548;13.344;2022-09-09T12:40:19;2.95;;;1.80;;
9912;SDS011;41380;52.548;13.344;2022-09-09T12:42:47;3.65;;;1.90;;
9912;SDS011;41380;52.548;13.344;2022-09-09T12:45:16;3.80;;;2.25;;
9912;SDS011;41380;52.548;13.344;2022-09-09T12:47:45;2.72;;;1.48;;
9912;SDS011;41380;52.548;13.344;2022-09-09T12:50:18;3.08;;;1.75;;
9912;SDS011;41380;52.548;13.344;2022-09-09T12:52:48;2.95;;;1.50;;
9912;SDS011;41380;52.548;13.344;2022-09-09T12:55:20;4.45;;;2.45;;
9912;SDS011;41380;52.548;13.344;2022-09-09T12:57:50;2.67;;;1.70;;
9912;SDS011;41380;52.548;13.344;2022-09-09T13:00:19;3.03;;;2.20;;
9912;SDS011;41380;52.548;13.344;2022-09-09T13:02:48;3.88;;;2.10;;
9912;SDS011;41380;52.548;13.344;2022-09-09T13:05:19;3.60;;;2.20;;
9912;SDS011;41380;52.548;13.344;2022-09-09T13:07:49;4.72;;;2.00;;
9912;SDS011;41380;52.548;13.344;2022-09-09T13:10:22;2.65;;;1.70;;
9912;SDS011;41380;52.548;13.344;2022-09-09T13:12:52;3.50;;;1.80;;
9912;SDS011;41380;52.548;13.344;2022-09-09T13:15:21;3.33;;;1.50;;
9912;SDS011;41380;52.548;13.344;2022-09-09T13:17:53;4.38;;;1.58;;
9912;SDS011;41380;52.548;13.344;2022-09-09T13:20:22;3.53;;;2.20;;
9912;SDS011;41380;52.548;13.344;2022-09-09T13:22:52;12.10;;;2.08;;
9912;SDS011;41380;52.548;13.344;2022-09-09T13:25:22;4.65;;;2.25;;
9912;SDS011;41380;52.548;13.344;2022-09-09T13:27:53;1.90;;;1.40;;
9912;SDS011;41380;52.548;13.344;2022-09-09T13:30:22;3.28;;;2.20;;
9912;SDS011;41380;52.548;13.344;2022-09-09T13:35:48;3.47;;;1.95;;
9912;SDS011;41380;52.548;13.344;2022-09-09T13:38:19;5.47;;;2.72;;
9912;SDS011;41380;52.548;13.344;2022-09-09T13:40:54;5.00;;;2.10;;
9912;SDS011;41380;52.548;13.344;2022-09-09T13:43:24;3.30;;;2.22;;
9912;SDS011;41380;52.548;13.344;2022-09-09T13:45:53;3.97;;;2.40;;
9912;SDS011;41380;52.548;13.344;2022-09-09T13:48:21;3.83;;;2.10;;
9912;SDS011;41380;52.548;13.344;2022-09-09T13:50:53;4.88;;;2.58;;
9912;SDS011;41380;52.548;13.344;2022-09-09T13:53:25;3.00;;;2.22;;
9912;SDS011;41380;52.548;13.344;2022-09-09T13:55:53;3.92;;;2.03;;
9912;SDS011;41380;52.548;13.344;2022-09-09T13:58:21;3.20;;;1.40;;
9912;SDS011;41380;52.548;13.344;2022-09-09T14:00:50;3.60;;;2.25;;
9912;SDS011;41380;52.548;13.344;2022-09-09T14:03:18;2.35;;;1.60;;
9912;SDS011;41380;52.548;13.344;2022-09-09T14:05:46;2.88;;;1.55;;
9912;SDS011;41380;52.548;13.344;2022-09-09T14:08:16;2.78;;;1.45;;
9912;SDS011;41380;52.548;13.344;2022-09-09T14:10:49;2.65;;;1.70;;
9912;SDS011;41380;52.548;13.344;2022-09-09T14:13:15;4.40;;;2.00;;
9912;SDS011;41380;52.548;13.344;2022-09-09T14:15:47;2.58;;;1.77;;
9912;SDS011;41380;52.548;13.344;2022-09-09T14:18:15;3.88;;;2.28;;
9912;SDS011;41380;52.548;13.344;2022-09-09T14:20:43;7.50;;;2.25;;
9912;SDS011;41380;52.548;13.344;2022-09-09T14:23:11;2.88;;;1.67;;
9912;SDS011;41380;52.548;13.344;2022-09-09T14:25:39;3.58;;;1.80;;
9912;SDS011;41380;52.548;13.344;2022-09-09T14:28:10;5.15;;;2.75;;
9912;SDS011;41380;52.548;13.344;2022-09-09T14:30:40;2.38;;;2.15;;
9912;SDS011;41380;52.548;13.344;2022-09-09T14:33:08;3.40;;;1.40;;
9912;SDS011;41380;52.548;13.344;2022-09-09T14:35:38;2.85;;;1.80;;
9912;SDS011;41380;52.548;13.344;2022-09-09T14:38:06;2.95;;;1.70;;
9912;SDS011;41380;52.548;13.344;2022-09-09T14:40:34;3.88;;;1.67;;
9912;SDS011;41380;52.548;13.344;2022-09-09T14:43:01;4.15;;;2.00;;
9912;SDS011;41380;52.548;13.344;2022-09-09T14:45:30;3.55;;;1.70;;
9912;SDS011;41380;52.548;13.344;2022-09-09T14:47:57;3.08;;;1.67;;
9912;SDS011;41380;52.548;13.344;2022-09-09T14:50:24;3.63;;;1.70;;
9912;SDS011;41380;52.548;13.344;2022-09-09T14:52:51;4.80;;;3.33;;
9912;SDS011;41380;52.548;13.344;2022-09-09T14:55:18;3.13;;;1.90;;
9912;SDS011;41380;52.548;13.344;2022-09-09T14:57:46;3.42;;;1.65;;
9912;SDS011;41380;52.548;13.344;2022-09-09T15:00:13;3.25;;;1.50;;
9912;SDS011;41380;52.548;13.344;2022-09-09T15:02:42;2.58;;;1.52;;
9912;SDS011;41380;52.548;13.344;2022-09-09T15:05:10;2.58;;;1.63;;
9912;SDS011;41380;52.548;13.344;2022-09-09T15:07:37;3.38;;;1.90;;
9912;SDS011;41380;52.548;13.344;2022-09-09T15:10:05;3.05;;;1.88;;
9912;SDS011;41380;52.548;13.344;2022-09-09T15:12:33;2.30;;;1.60;;